createdAt,value
2018-12-15T00:02:02.153Z,99786.72
2018-12-15T00:04:31.618Z,99796.45
2018-12-15T00:07:00.206Z,99795.21
2018-12-15T00:09:29.038Z,99799.62
2018-12-15T00:11:57.893Z,99795.78
2018-12-15T00:14:27.546Z,99791.60
2018-12-15T00:16:56.050Z,99792.72
2018-12-15T00:19:24.479Z,99792.52
2018-12-15T00:21:53.007Z,99793.80
2018-12-15T00:24:21.564Z,99790.91
2018-12-15T00:26:50.566Z,99786.83
2018-12-15T00:29:19.039Z,99791.23
2018-12-15T00:31:47.521Z,99796.65
2018-12-15T00:34:16.134Z,99792.72
2018-12-15T00:36:44.639Z,99806.24
2018-12-15T00:39:13.177Z,99810.89
2018-12-15T00:41:41.988Z,99813.72
2018-12-15T00:44:10.493Z,99813.83
2018-12-15T00:46:39.042Z,99816.11
2018-12-15T00:49:07.474Z,99809.60
2018-12-15T00:51:36.749Z,99809.69
2018-12-15T00:54:05.245Z,99810.48
2018-12-15T00:56:33.778Z,99813.41
2018-12-15T00:59:02.301Z,99816.88
2018-12-15T01:01:30.799Z,99817.52
2018-12-15T01:04:00.120Z,99816.06
2018-12-15T01:06:28.782Z,99822.38
2018-12-15T01:08:57.340Z,99826.60
2018-12-15T01:11:25.837Z,99825.64
2018-12-15T01:13:54.317Z,99826.66
2018-12-15T01:16:22.781Z,99835.41
2018-12-15T01:18:51.464Z,99836.38
2018-12-15T01:21:20.012Z,99837.75
2018-12-15T01:23:48.533Z,99840.95
2018-12-15T01:26:18.871Z,99844.23
2018-12-15T01:28:47.435Z,99851.23
2018-12-15T01:31:16.093Z,99845.55
2018-12-15T01:33:45.930Z,99849.70
2018-12-15T01:36:14.542Z,99852.15
2018-12-15T01:38:43.037Z,99859.50
2018-12-15T01:41:11.553Z,99855.36
2018-12-15T01:43:40.030Z,99857.47
2018-12-15T01:46:09.305Z,99861.66
2018-12-15T01:48:38.581Z,99867.34
2018-12-15T01:51:07.115Z,99862.66
2018-12-15T01:53:36.775Z,99873.94
2018-12-15T01:56:05.266Z,99877.17
2018-12-15T01:58:33.803Z,99879.13
2018-12-15T02:01:02.317Z,99878.95
2018-12-15T02:03:30.930Z,99882.37
2018-12-15T02:05:59.757Z,99883.00
2018-12-15T02:08:28.521Z,99875.91
2018-12-15T02:10:57.877Z,99883.45
2018-12-15T02:13:26.633Z,99881.89
2018-12-15T02:15:55.732Z,99881.39
2018-12-15T02:18:24.258Z,99882.75
2018-12-15T02:20:52.729Z,99878.98
2018-12-15T02:23:21.380Z,99882.25
2018-12-15T02:25:50.143Z,99879.71
2018-12-15T02:28:18.693Z,99872.69
2018-12-15T02:30:47.757Z,99885.53
2018-12-15T02:33:16.457Z,99880.98
2018-12-15T02:35:45.142Z,99884.96
2018-12-15T02:38:14.007Z,99877.72
2018-12-15T02:40:42.624Z,99877.38
2018-12-15T02:43:11.716Z,99875.09
2018-12-15T02:45:40.243Z,99877.84
2018-12-15T02:48:08.734Z,99872.69
2018-12-15T02:50:37.286Z,99872.73
2018-12-15T02:53:05.868Z,99870.48
2018-12-15T02:55:34.554Z,99873.89
2018-12-15T02:58:34.198Z,99872.19
2018-12-15T03:01:02.692Z,99874.45
2018-12-15T03:03:31.839Z,99875.86
2018-12-15T03:06:00.380Z,99869.31
2018-12-15T03:08:28.865Z,99866.20
2018-12-15T03:10:57.888Z,99864.98
2018-12-15T03:13:26.382Z,99860.54
2018-12-15T03:15:55.609Z,99855.69
2018-12-15T03:18:24.941Z,99855.56
2018-12-15T03:21:00.805Z,99859.09
2018-12-15T03:23:30.053Z,99853.52
2018-12-15T03:25:58.944Z,99854.05
2018-12-15T03:28:28.572Z,99847.64
2018-12-15T03:30:57.937Z,99853.39
2018-12-15T03:33:26.475Z,99852.89
2018-12-15T03:35:55.470Z,99855.30
2018-12-15T03:38:24.056Z,99845.41
2018-12-15T03:40:52.565Z,99851.63
2018-12-15T03:43:20.983Z,99847.36
2018-12-15T03:45:50.030Z,99854.52
2018-12-15T03:48:19.108Z,99850.92
2018-12-15T03:50:48.209Z,99855.19
2018-12-15T03:53:16.766Z,99864.02
2018-12-15T03:55:45.367Z,99856.21
2018-12-15T03:58:13.990Z,99854.29
2018-12-15T04:00:42.626Z,99852.67
2018-12-15T04:03:11.491Z,99848.73
2018-12-15T04:05:40.018Z,99847.16
2018-12-15T04:08:08.575Z,99836.78
2018-12-15T04:10:38.369Z,99838.73
2018-12-15T04:13:06.860Z,99831.90
2018-12-15T04:15:35.401Z,99834.29
2018-12-15T04:18:04.152Z,99833.78
2018-12-15T04:20:32.611Z,99839.96
2018-12-15T04:23:01.147Z,99841.03
2018-12-15T04:25:29.645Z,99845.69
2018-12-15T04:27:58.667Z,99851.74
2018-12-15T04:30:27.146Z,99846.13
2018-12-15T04:32:55.845Z,99847.43
2018-12-15T04:35:24.362Z,99846.89
2018-12-15T04:37:52.828Z,99853.77
2018-12-15T04:40:21.618Z,99851.70
2018-12-15T04:42:50.350Z,99855.61
2018-12-15T04:45:18.909Z,99853.09
2018-12-15T04:47:47.443Z,99851.64
2018-12-15T04:50:15.956Z,99849.75
2018-12-15T04:52:44.467Z,99557.67
2018-12-15T04:55:12.986Z,99851.41
2018-12-15T04:57:41.511Z,99848.53
2018-12-15T05:00:10.076Z,99851.70
2018-12-15T05:02:43.814Z,99853.86
2018-12-15T05:05:09.790Z,99850.23
2018-12-15T05:07:38.966Z,99849.70
2018-12-15T05:10:07.545Z,99849.45
2018-12-15T05:12:36.152Z,99856.37
2018-12-15T05:15:04.691Z,99855.19
2018-12-15T05:17:33.338Z,99853.41
2018-12-15T05:20:01.955Z,99859.16
2018-12-15T05:22:30.426Z,99856.49
2018-12-15T05:24:59.045Z,99857.91
2018-12-15T05:27:27.767Z,99859.52
2018-12-15T05:29:57.647Z,99865.14
2018-12-15T05:32:26.883Z,99860.39
2018-12-15T05:34:55.689Z,99860.06
2018-12-15T05:37:25.538Z,99863.27
2018-12-15T05:39:54.071Z,99857.15
2018-12-15T05:42:22.649Z,99860.12
2018-12-15T05:44:51.137Z,99854.89
2018-12-15T05:47:19.705Z,99858.70
2018-12-15T05:49:48.140Z,99857.35
2018-12-15T05:52:16.964Z,99857.41
2018-12-15T05:54:45.479Z,99861.81
2018-12-15T05:57:13.994Z,99861.47
2018-12-15T05:59:42.714Z,99866.16
2018-12-15T06:02:13.738Z,99856.67
2018-12-15T06:04:42.238Z,99857.93
2018-12-15T06:07:11.022Z,99853.67
2018-12-15T06:09:40.099Z,99861.42
2018-12-15T06:12:08.639Z,99856.28
2018-12-15T06:14:37.252Z,99859.42
2018-12-15T06:17:05.805Z,99862.88
2018-12-15T06:19:34.363Z,99854.54
2018-12-15T06:22:02.909Z,99853.12
2018-12-15T06:24:31.453Z,99856.52
2018-12-15T06:27:00.045Z,99861.71
2018-12-15T06:29:28.583Z,99860.16
2018-12-15T06:31:57.109Z,99860.62
2018-12-15T06:34:25.644Z,99864.17
2018-12-15T06:36:54.131Z,99852.31
2018-12-15T06:39:23.381Z,99853.42
2018-12-15T06:41:52.541Z,99854.18
2018-12-15T06:44:21.061Z,99860.05
2018-12-15T06:46:49.618Z,99860.10
2018-12-15T06:49:18.812Z,99862.00
2018-12-15T06:51:47.770Z,99862.66
2018-12-15T06:54:16.487Z,99866.66
2018-12-15T06:56:45.035Z,99867.42
2018-12-15T06:59:14.298Z,99863.44
2018-12-15T07:01:42.857Z,99866.59
2018-12-15T07:04:11.416Z,99864.41
2018-12-15T07:06:39.997Z,99865.69
2018-12-15T07:09:08.543Z,99874.84
2018-12-15T07:11:38.147Z,99870.79
2018-12-15T07:14:06.647Z,99868.53
2018-12-15T07:16:35.140Z,99865.28
2018-12-15T07:19:04.474Z,99861.80
2018-12-15T07:21:33.048Z,99862.84
2018-12-15T07:24:01.642Z,99868.59
2018-12-15T07:26:30.269Z,99856.45
2018-12-15T07:28:59.217Z,99860.71
2018-12-15T07:31:28.325Z,99863.60
2018-12-15T07:33:56.955Z,99853.70
2018-12-15T07:36:25.376Z,99856.59
2018-12-15T07:38:54.058Z,99852.89
2018-12-15T07:41:22.570Z,99852.31
2018-12-15T07:43:51.982Z,99854.30
2018-12-15T07:46:20.945Z,99852.12
2018-12-15T07:48:51.532Z,99847.53
2018-12-15T07:51:21.263Z,99851.23
2018-12-15T07:53:49.789Z,99852.06
2018-12-15T07:56:21.997Z,99851.27
2018-12-15T07:58:51.146Z,99850.37
2018-12-15T08:01:19.788Z,99853.41
2018-12-15T08:03:48.378Z,99853.23
2018-12-15T08:06:17.210Z,99864.42
2018-12-15T08:08:46.902Z,99867.89
2018-12-15T08:11:28.009Z,99862.45
2018-12-15T08:14:01.845Z,99871.56
2018-12-15T08:16:31.000Z,99876.16
2018-12-15T08:19:00.314Z,99872.98
2018-12-15T08:21:28.817Z,99879.31
2018-12-15T08:23:57.945Z,99881.00
2018-12-15T08:26:26.422Z,99885.27
2018-12-15T08:28:54.926Z,99886.98
2018-12-15T08:31:24.204Z,99888.07
2018-12-15T08:33:53.344Z,99886.23
2018-12-15T08:36:21.911Z,99892.53
2018-12-15T08:38:50.425Z,99891.61
2018-12-15T08:41:18.945Z,99891.44
2018-12-15T08:43:48.191Z,99891.38
2018-12-15T08:46:18.818Z,99888.63
2018-12-15T08:48:47.602Z,99890.91
2018-12-15T08:51:17.091Z,99890.44
2018-12-15T08:53:46.273Z,99897.37
2018-12-15T08:56:14.834Z,99889.52
2018-12-15T08:58:44.147Z,99895.11
2018-12-15T09:01:14.450Z,99904.49
2018-12-15T09:03:43.037Z,99901.63
2018-12-15T09:06:11.671Z,99896.39
2018-12-15T09:08:40.267Z,99901.37
2018-12-15T09:11:08.792Z,99898.93
2018-12-15T09:13:38.380Z,99897.12
2018-12-15T09:16:07.629Z,99900.38
2018-12-15T09:18:36.481Z,99892.28
2018-12-15T09:21:05.029Z,99894.61
2018-12-15T09:23:33.579Z,99891.25
2018-12-15T09:26:02.441Z,99903.83
2018-12-15T09:28:31.600Z,99897.62
2018-12-15T09:31:00.318Z,99896.73
2018-12-15T09:33:29.702Z,99903.36
2018-12-15T09:35:58.221Z,99903.27
2018-12-15T09:38:26.745Z,99904.99
2018-12-15T09:40:55.307Z,99900.46
2018-12-15T09:43:23.783Z,99893.95
2018-12-15T09:45:52.287Z,99859.16
2018-12-15T09:48:20.788Z,99894.77
2018-12-15T09:50:50.633Z,99894.77
2018-12-15T09:53:21.568Z,99894.30
2018-12-15T09:55:50.114Z,99892.38
2018-12-15T09:58:18.757Z,99895.93
2018-12-15T10:00:47.321Z,99896.99
2018-12-15T10:03:15.823Z,99898.83
2018-12-15T10:05:44.327Z,99890.34
2018-12-15T10:08:13.027Z,99889.07
2018-12-15T10:10:41.944Z,99888.59
2018-12-15T10:13:10.422Z,99885.92
2018-12-15T10:15:40.350Z,99880.30
2018-12-15T10:18:08.871Z,99882.13
2018-12-15T10:20:37.480Z,99870.61
2018-12-15T10:23:06.563Z,99869.69
2018-12-15T10:25:35.146Z,99862.55
2018-12-15T10:28:03.689Z,99862.61
2018-12-15T10:30:37.543Z,99847.68
2018-12-15T10:33:06.759Z,99852.94
2018-12-15T10:35:35.246Z,99847.23
2018-12-15T10:38:03.797Z,99842.08
2018-12-15T10:40:33.187Z,99840.64
2018-12-15T10:43:01.712Z,99839.31
2018-12-15T10:45:31.536Z,99835.45
2018-12-15T10:48:00.244Z,99827.63
2018-12-15T10:50:28.867Z,99803.00
2018-12-15T10:52:57.623Z,99806.99
2018-12-15T10:55:26.144Z,99814.98
2018-12-15T10:57:55.132Z,99804.91
2018-12-15T11:00:26.560Z,99815.05
2018-12-15T11:02:55.601Z,99812.44
2018-12-15T11:05:24.622Z,99809.23
2018-12-15T11:07:53.434Z,99802.30
2018-12-15T11:10:22.401Z,99808.56
2018-12-15T11:12:51.050Z,99807.64
2018-12-15T11:15:20.463Z,99808.13
2018-12-15T11:17:49.218Z,99803.37
2018-12-15T11:20:19.117Z,99797.55
2018-12-15T11:22:47.601Z,99783.24
2018-12-15T11:25:16.158Z,99780.20
2018-12-15T11:27:44.792Z,99782.39
2018-12-15T11:30:13.412Z,99773.43
2018-12-15T11:32:42.096Z,99781.07
2018-12-15T11:35:10.621Z,99778.77
2018-12-15T11:40:15.040Z,99774.61
2018-12-15T11:42:44.944Z,99769.28
2018-12-15T11:45:14.614Z,99762.13
2018-12-15T11:47:43.420Z,99759.55
2018-12-15T11:50:12.156Z,99754.52
2018-12-15T11:52:40.681Z,99753.84
2018-12-15T11:55:09.193Z,99751.48
2018-12-15T11:57:38.439Z,99748.78
2018-12-15T12:00:07.018Z,99750.86
2018-12-15T12:02:35.916Z,99717.98
2018-12-15T12:05:04.662Z,99749.70
2018-12-15T12:07:33.206Z,99748.91
2018-12-15T12:10:01.772Z,99749.16
2018-12-15T12:12:31.840Z,99748.66
2018-12-15T12:15:00.561Z,99746.42
2018-12-15T12:17:29.084Z,99744.09
2018-12-15T12:19:57.561Z,99753.41
2018-12-15T12:22:26.030Z,99743.23
2018-12-15T12:24:54.550Z,99744.94
2018-12-15T12:27:23.174Z,99743.83
2018-12-15T12:29:52.382Z,99735.75
2018-12-15T12:32:21.000Z,99734.56
2018-12-15T12:34:49.525Z,99735.37
2018-12-15T12:37:18.773Z,99734.42
2018-12-15T12:39:47.317Z,99732.58
2018-12-15T12:42:15.870Z,99733.27
2018-12-15T12:44:44.430Z,99723.98
2018-12-15T12:47:13.141Z,99732.27
2018-12-15T12:49:42.538Z,99719.13
2018-12-15T12:52:11.777Z,99793.46
2018-12-15T12:54:41.850Z,99720.34
2018-12-15T12:57:10.616Z,99723.33
2018-12-15T12:59:39.252Z,99719.45
2018-12-15T13:02:07.782Z,99715.32
2018-12-15T13:04:36.609Z,99719.17
2018-12-15T13:07:05.300Z,99717.51
2018-12-15T13:09:33.808Z,99722.69
2018-12-15T13:12:02.438Z,99726.61
2018-12-15T13:14:31.682Z,99721.33
2018-12-15T13:17:00.643Z,99717.45
2018-12-15T13:19:29.125Z,99725.89
2018-12-15T13:21:57.570Z,99723.07
2018-12-15T13:24:26.547Z,99724.53
2018-12-15T13:26:59.099Z,99725.23
2018-12-15T13:29:26.095Z,99722.50
2018-12-15T13:31:54.698Z,99711.36
2018-12-15T13:34:23.807Z,99714.92
2018-12-15T13:36:52.746Z,99706.00
2018-12-15T13:39:21.274Z,99709.39
2018-12-15T13:41:49.956Z,99709.66
2018-12-15T13:44:19.070Z,99711.03
2018-12-15T13:46:47.807Z,99706.50
2018-12-15T13:49:16.273Z,99714.32
2018-12-15T13:51:44.832Z,99707.48
2018-12-15T13:54:18.945Z,99707.36
2018-12-15T13:56:48.098Z,99709.27
2018-12-15T13:59:16.582Z,99716.30
2018-12-15T14:01:45.606Z,99721.17
2018-12-15T14:04:14.622Z,99727.66
2018-12-15T14:06:43.061Z,99719.95
2018-12-15T14:09:11.521Z,99708.14
2018-12-15T14:11:40.856Z,99707.52
2018-12-15T14:14:09.400Z,99706.77
2018-12-15T14:16:37.813Z,99702.08
2018-12-15T14:19:06.365Z,99694.67
2018-12-15T14:21:34.865Z,99693.67
2018-12-15T14:24:03.421Z,99689.42
2018-12-15T14:26:31.910Z,99697.70
2018-12-15T14:29:01.021Z,99704.25
2018-12-15T14:31:29.626Z,99704.54
2018-12-15T14:33:58.426Z,99691.56
2018-12-15T14:36:26.898Z,99698.36
2018-12-15T14:38:55.435Z,99696.63
2018-12-15T14:41:25.162Z,99693.85
2018-12-15T14:43:55.158Z,99700.01
2018-12-15T14:46:23.688Z,99693.14
2018-12-15T14:48:52.271Z,99686.92
2018-12-15T14:51:20.865Z,99678.53
2018-12-15T14:53:49.492Z,99676.08
2018-12-15T14:56:18.013Z,99669.98
2018-12-15T14:58:46.592Z,99667.25
2018-12-15T15:01:15.693Z,99662.95
2018-12-15T15:03:44.460Z,99660.00
2018-12-15T15:06:13.085Z,99653.97
2018-12-15T15:08:41.618Z,99640.28
2018-12-15T15:11:10.183Z,99630.81
2018-12-15T15:13:38.808Z,99628.13
2018-12-15T15:16:07.528Z,99627.05
2018-12-15T15:18:36.138Z,99621.32
2018-12-15T15:21:04.701Z,99612.37
2018-12-15T15:23:33.274Z,99613.88
2018-12-15T15:26:02.360Z,99611.00
2018-12-15T15:28:30.886Z,99611.00
2018-12-15T15:30:59.537Z,99604.65
2018-12-15T15:33:28.213Z,99613.94
2018-12-15T15:35:56.673Z,99609.43
2018-12-15T15:38:25.198Z,99610.47
2018-12-15T15:40:53.739Z,99603.29
2018-12-15T15:43:22.341Z,99596.30
2018-12-15T15:45:52.372Z,99598.72
2018-12-15T15:48:22.002Z,99595.64
2018-12-15T15:50:50.597Z,99596.90
2018-12-15T15:53:19.779Z,99588.66
2018-12-15T15:55:48.401Z,99585.69
2018-12-15T15:58:17.620Z,99597.09
2018-12-15T16:00:46.964Z,99395.44
2018-12-15T16:03:15.577Z,99583.73
2018-12-15T16:05:44.241Z,99590.45
2018-12-15T16:08:13.261Z,99588.51
2018-12-15T16:10:42.111Z,99590.18
2018-12-15T16:13:11.945Z,99594.73
2018-12-15T16:15:41.922Z,99583.01
2018-12-15T16:18:10.820Z,99592.80
2018-12-15T16:20:43.236Z,99587.56
2018-12-15T16:23:10.588Z,99587.20
2018-12-15T16:25:39.234Z,99589.34
2018-12-15T16:28:08.334Z,99591.09
2018-12-15T16:30:36.810Z,99585.30
2018-12-15T16:33:05.302Z,99587.43
2018-12-15T16:35:34.027Z,99585.42
2018-12-15T16:38:02.694Z,99590.11
2018-12-15T16:40:31.275Z,99589.29
2018-12-15T16:42:59.749Z,99591.55
2018-12-15T16:45:29.075Z,99586.83
2018-12-15T16:47:58.910Z,99587.46
2018-12-15T16:50:27.636Z,99588.58
2018-12-15T16:52:57.126Z,99590.22
2018-12-15T16:55:25.682Z,99588.14
2018-12-15T16:57:54.319Z,99589.78
2018-12-15T17:00:24.045Z,99585.25
2018-12-15T17:02:53.153Z,99588.91
2018-12-15T17:05:23.369Z,99583.80
2018-12-15T17:07:51.902Z,99586.65
2018-12-15T17:10:21.010Z,99586.31
2018-12-15T17:12:50.148Z,99592.88
2018-12-15T17:15:19.131Z,99585.14
2018-12-15T17:17:47.783Z,99582.98
2018-12-15T17:20:16.600Z,99543.02
2018-12-15T17:22:45.239Z,99564.63
2018-12-15T17:25:14.307Z,99568.14
2018-12-15T17:27:42.903Z,99558.23
2018-12-15T17:30:12.287Z,99544.23
2018-12-15T17:32:40.872Z,99543.34
2018-12-15T17:35:09.518Z,99536.15
2018-12-15T17:37:38.075Z,99531.33
2018-12-15T17:40:08.690Z,99534.45
2018-12-15T17:42:37.171Z,99531.41
2018-12-15T17:45:07.180Z,99523.02
2018-12-15T17:47:35.691Z,99521.95
2018-12-15T17:50:04.254Z,99518.10
2018-12-15T17:52:32.774Z,99515.53
2018-12-15T17:55:01.358Z,99509.19
2018-12-15T17:57:29.873Z,99512.08
2018-12-15T17:59:58.549Z,99502.38
2018-12-15T18:02:27.715Z,99498.37
2018-12-15T18:04:56.247Z,99500.25
2018-12-15T18:07:24.817Z,99488.88
2018-12-15T18:09:54.509Z,99477.81
2018-12-15T18:12:23.291Z,99474.09
2018-12-15T18:14:52.063Z,99475.05
2018-12-15T18:17:20.818Z,99468.88
2018-12-15T18:19:49.521Z,99459.26
2018-12-15T18:22:18.031Z,99455.22
2018-12-15T18:24:47.898Z,99444.94
2018-12-15T18:27:16.473Z,99446.34
2018-12-15T18:29:45.014Z,99438.80
2018-12-15T18:32:13.507Z,99442.56
2018-12-15T18:34:42.114Z,99442.82
2018-12-15T18:37:10.833Z,99435.68
2018-12-15T18:39:39.483Z,99430.80
2018-12-15T18:42:10.813Z,99424.36
2018-12-15T18:44:38.772Z,99419.06
2018-12-15T18:47:25.518Z,99422.05
2018-12-15T18:49:54.138Z,99417.02
2018-12-15T18:52:23.936Z,99413.91
2018-12-15T18:54:53.079Z,99409.19
2018-12-15T18:57:21.787Z,99406.44
2018-12-15T18:59:50.869Z,99411.59
2018-12-15T19:02:19.709Z,99410.63
2018-12-15T19:04:48.731Z,99417.28
2018-12-15T19:07:19.415Z,99411.52
2018-12-15T19:09:50.698Z,99409.75
2018-12-15T19:12:19.943Z,99415.23
2018-12-15T19:14:49.553Z,99411.25
2018-12-15T19:17:18.909Z,99414.98
2018-12-15T19:19:47.499Z,99406.84
2018-12-15T19:22:16.104Z,99408.80
2018-12-15T19:24:44.593Z,99416.55
2018-12-15T19:27:14.186Z,99412.26
2018-12-15T19:29:42.800Z,99406.20
2018-12-15T19:32:11.563Z,99394.06
2018-12-15T19:34:42.078Z,99392.91
2018-12-15T19:37:11.365Z,99384.61
2018-12-15T19:39:40.179Z,99369.97
2018-12-15T19:42:13.975Z,99362.81
2018-12-15T19:44:56.932Z,99364.46
2018-12-15T19:47:25.732Z,99361.39
2018-12-15T19:49:54.946Z,99357.40
2018-12-15T19:52:24.269Z,99350.95
2018-12-15T19:54:52.899Z,99342.71
2018-12-15T19:57:21.608Z,99337.13
2018-12-15T19:59:50.188Z,99330.58
2018-12-15T20:02:18.848Z,99330.19
2018-12-15T20:04:47.517Z,99333.87
2018-12-15T20:07:16.711Z,99332.03
2018-12-15T20:09:45.291Z,99332.78
2018-12-15T20:12:14.333Z,99328.15
2018-12-15T20:14:42.871Z,99328.61
2018-12-15T20:17:13.715Z,99322.51
2018-12-15T20:19:42.428Z,99315.28
2018-12-15T20:22:10.990Z,99301.77
2018-12-15T20:24:39.516Z,99283.72
2018-12-15T20:27:08.052Z,99289.73
2018-12-15T20:29:36.542Z,99285.74
2018-12-15T20:32:05.808Z,99279.77
2018-12-15T20:34:34.363Z,99283.43
2018-12-15T20:37:03.033Z,99283.23
2018-12-15T20:39:31.574Z,99285.93
2018-12-15T20:42:00.098Z,99289.36
2018-12-15T20:44:29.390Z,99297.88
2018-12-15T20:46:59.392Z,99292.98
2018-12-15T20:49:27.910Z,99292.84
2018-12-15T20:51:57.204Z,99288.53
2018-12-15T20:54:25.884Z,99281.36
2018-12-15T20:56:54.413Z,99279.18
2018-12-15T20:59:23.542Z,99282.27
2018-12-15T21:01:52.219Z,99292.44
2018-12-15T21:04:20.786Z,99289.28
2018-12-15T21:06:49.838Z,99293.94
2018-12-15T21:09:18.462Z,99297.22
2018-12-15T21:11:47.051Z,99290.19
2018-12-15T21:14:15.666Z,99285.16
2018-12-15T21:16:44.274Z,99276.42
2018-12-15T21:19:13.411Z,99269.70
2018-12-15T21:21:42.171Z,99259.87
2018-12-15T21:24:10.716Z,99253.43
2018-12-15T21:26:39.415Z,99251.54
2018-12-15T21:29:08.493Z,99244.49
2018-12-15T21:31:37.152Z,99242.22
2018-12-15T21:34:08.034Z,99239.08
2018-12-15T21:36:36.761Z,99221.81
2018-12-15T21:39:06.731Z,99208.05
2018-12-15T21:41:35.399Z,99199.47
2018-12-15T21:44:04.418Z,99191.80
2018-12-15T21:46:33.419Z,99188.45
2018-12-15T21:49:01.981Z,99189.70
2018-12-15T21:51:30.617Z,99191.19
2018-12-15T21:53:59.287Z,99193.41
2018-12-15T21:56:27.864Z,99182.77
2018-12-15T21:58:56.509Z,99172.52
2018-12-15T22:01:25.568Z,99170.95
2018-12-15T22:03:54.228Z,99160.45
2018-12-15T22:06:22.837Z,99148.07
2018-12-15T22:08:51.413Z,99135.05
2018-12-15T22:11:20.154Z,99124.27
2018-12-15T22:13:48.733Z,99122.34
2018-12-15T22:16:17.397Z,99114.20
2018-12-15T22:18:46.773Z,99117.45
2018-12-15T22:21:15.297Z,99117.17
2018-12-15T22:23:43.873Z,99112.00
2018-12-15T22:26:13.201Z,99097.17
2018-12-15T22:28:41.838Z,99089.19
2018-12-15T22:31:10.533Z,99080.73
2018-12-15T22:33:39.143Z,99086.14
2018-12-15T22:36:08.845Z,99075.19
2018-12-15T22:38:37.475Z,99059.97
2018-12-15T22:41:06.765Z,99057.39
2018-12-15T22:43:35.247Z,99048.87
2018-12-15T22:46:03.985Z,99041.66
2018-12-15T22:48:33.185Z,99046.48
2018-12-15T22:51:02.222Z,99039.44
2018-12-15T22:53:31.502Z,99044.75
2018-12-15T22:56:00.038Z,99040.39
2018-12-15T22:58:29.923Z,99034.49
2018-12-15T23:04:07.859Z,99021.36
2018-12-15T23:06:36.485Z,99027.06
2018-12-15T23:09:07.160Z,99031.36
2018-12-15T23:11:35.654Z,99027.70
2018-12-15T23:14:04.333Z,99025.33
2018-12-15T23:16:45.282Z,99019.38
2018-12-15T23:19:14.022Z,99008.33
2018-12-15T23:21:42.530Z,99007.25
2018-12-15T23:24:14.475Z,99002.97
2018-12-15T23:26:43.754Z,98990.98
2018-12-15T23:29:16.258Z,98987.17
2018-12-15T23:31:44.957Z,98994.22
2018-12-15T23:34:13.715Z,98986.94
2018-12-15T23:36:42.329Z,98984.26
2018-12-15T23:39:11.460Z,98985.88
2018-12-15T23:41:40.570Z,98987.63
2018-12-15T23:44:09.706Z,98987.55
2018-12-15T23:46:38.254Z,98978.48
2018-12-15T23:49:06.916Z,98977.94
2018-12-15T23:51:36.833Z,98977.31
2018-12-15T23:54:05.413Z,98975.94
2018-12-15T23:56:34.063Z,98976.00
2018-12-15T23:59:02.621Z,98963.48
